SPJL/JUL METAR and TAF weather

Enter ICAO airport designator
Station Type Date Time Source
SPJL METAR 2020/02/19 14:00 UTC NOAA

SPJL 191400Z 31004KT 9999 SCT015 SCT080 11/07 Q1038 RMK PP000


Station Type Date Time Source
SPJL Decoded METAR 2020/02/19 14:00 UTC NOAA

Juliaca, Peru (SPJL) 15-29S 070-09W 3827M
Feb 19, 2020 - 09:00 AM EST / 2020.02.19 1400 UTC
Wind: from the NW (310 degrees) at 5 MPH (4 KT):0
Visibility: greater than 7 mile(s):0
Sky conditions: partly cloudy
Temperature: 51 F (11 C)
Dew Point: 44 F (7 C)
Relative Humidity: 76%
Pressure (altimeter): 30.65 in. Hg (1038 hPa)
ob: SPJL 191400Z 31004KT 9999 SCT015 SCT080 11/07 Q1038 RMK PP000
cycle: 14

Station Type Date Time Source
SPJL TAF 2020/02/19 12:33 UTC NOAA

TAF SPJL 191115Z 1912/2012 30005KT 9999 SCT015 SCT080 TX19/1919Z TN06/2010Z
FM192000 11010KT 9999 BKN015 BKN080
FM200030 VRB05KT 9999 BKN012 BKN100

Example: see airport list